createdAt,value
2017-08-13T00:03:49.950Z,100725
2017-08-13T00:08:53.130Z,100715
2017-08-13T00:13:57.276Z,100723
2017-08-13T00:19:00.454Z,100705
2017-08-13T00:24:04.407Z,100702
2017-08-13T00:29:07.577Z,100705
2017-08-13T00:34:10.768Z,100698
2017-08-13T00:39:13.950Z,100694
2017-08-13T00:44:17.129Z,100700
2017-08-13T00:49:21.073Z,100693
2017-08-13T00:54:24.270Z,100698
2017-08-13T00:59:27.446Z,100695
2017-08-13T01:04:31.413Z,100699
2017-08-13T01:09:34.596Z,100695
2017-08-13T01:14:38.518Z,100692
2017-08-13T01:19:42.589Z,100695
2017-08-13T01:24:45.803Z,100691
2017-08-13T01:29:48.973Z,100695
2017-08-13T01:34:52.184Z,100690
2017-08-13T01:39:55.388Z,100689
2017-08-13T01:44:58.547Z,100685
2017-08-13T01:50:01.702Z,100686
2017-08-13T01:55:04.904Z,100694
2017-08-13T02:00:08.200Z,100696
2017-08-13T02:05:12.133Z,100692
2017-08-13T02:10:15.335Z,100687
2017-08-13T02:15:19.283Z,100686
2017-08-13T02:20:22.674Z,100679
2017-08-13T02:25:26.026Z,100689
2017-08-13T02:30:29.212Z,100684
2017-08-13T02:35:32.405Z,100691
2017-08-13T02:40:35.589Z,100684
2017-08-13T02:45:39.533Z,100688
2017-08-13T02:50:42.715Z,100687
2017-08-13T02:55:46.665Z,100682
2017-08-13T03:00:49.872Z,100686
2017-08-13T03:05:53.046Z,100685
2017-08-13T03:10:56.375Z,100683
2017-08-13T03:16:00.393Z,100681
2017-08-13T03:21:04.698Z,100671
2017-08-13T03:26:07.900Z,100678
2017-08-13T03:31:11.089Z,100685
2017-08-13T03:36:14.277Z,100700
2017-08-13T03:41:17.462Z,100698
2017-08-13T03:46:20.749Z,100691
2017-08-13T03:51:24.098Z,100696
2017-08-13T03:56:27.294Z,100695
2017-08-13T04:01:30.533Z,100694
2017-08-13T04:06:33.718Z,100694
2017-08-13T04:11:36.915Z,100702
2017-08-13T04:16:40.254Z,100710
2017-08-13T04:21:43.430Z,100710
2017-08-13T04:26:46.606Z,100716
2017-08-13T04:31:49.790Z,100715
2017-08-13T04:36:53.017Z,100721
2017-08-13T04:41:56.238Z,100725
2017-08-13T04:47:00.311Z,100724
2017-08-13T04:52:03.499Z,100723
2017-08-13T04:57:07.411Z,100734
2017-08-13T05:02:11.377Z,100734
2017-08-13T05:07:14.561Z,100738
2017-08-13T05:12:17.741Z,100734
2017-08-13T05:17:21.706Z,100748
2017-08-13T05:22:24.932Z,100735
2017-08-13T05:27:28.167Z,100748
2017-08-13T05:32:31.398Z,100758
2017-08-13T05:37:34.697Z,100761
2017-08-13T05:42:38.643Z,100756
2017-08-13T05:47:41.833Z,100764
2017-08-13T05:52:45.774Z,100773
2017-08-13T05:57:49.010Z,100769
2017-08-13T06:02:52.201Z,100770
2017-08-13T06:07:55.369Z,100755
2017-08-13T06:12:59.345Z,100778
2017-08-13T06:18:02.558Z,100770
2017-08-13T06:23:05.734Z,100789
2017-08-13T06:28:08.924Z,100789
2017-08-13T06:33:12.900Z,100777
2017-08-13T06:38:16.076Z,100791
2017-08-13T06:43:19.261Z,100784
2017-08-13T06:48:23.246Z,100794
2017-08-13T06:53:26.469Z,100795
2017-08-13T06:58:29.655Z,100802
2017-08-13T07:03:32.864Z,100802
2017-08-13T07:08:36.125Z,100799
2017-08-13T07:13:40.053Z,100812
2017-08-13T07:18:43.232Z,100808
2017-08-13T07:23:46.414Z,100807
2017-08-13T07:28:49.598Z,100809
2017-08-13T07:33:52.785Z,100823
2017-08-13T07:38:55.958Z,100829
2017-08-13T07:43:59.160Z,100830
2017-08-13T07:49:02.354Z,100854
2017-08-13T07:54:05.521Z,100711
2017-08-13T07:59:08.719Z,100723
2017-08-13T08:04:11.906Z,100725
2017-08-13T08:09:15.866Z,100740
2017-08-13T08:14:19.089Z,100746
2017-08-13T08:19:22.269Z,100749
2017-08-13T08:24:25.454Z,100751
2017-08-13T08:29:29.487Z,100754
2017-08-13T08:34:33.438Z,100756
2017-08-13T08:39:36.619Z,100763
2017-08-13T08:44:39.871Z,100769
2017-08-13T08:49:43.062Z,100766
2017-08-13T08:54:46.278Z,100773
2017-08-13T08:59:49.487Z,100782
2017-08-13T09:04:52.712Z,100788
2017-08-13T09:09:55.933Z,100788
2017-08-13T09:14:59.593Z,100788
2017-08-13T09:20:02.902Z,100786
2017-08-13T09:25:06.123Z,100777
2017-08-13T09:30:09.307Z,100779
2017-08-13T09:35:12.491Z,100772
2017-08-13T09:40:16.449Z,100769
2017-08-13T09:45:19.628Z,100774
2017-08-13T09:50:23.608Z,100771
2017-08-13T09:55:26.862Z,100779
2017-08-13T10:00:30.810Z,100782
2017-08-13T10:05:34.040Z,100788
2017-08-13T10:10:37.259Z,100790
2017-08-13T10:15:40.448Z,100789
2017-08-13T10:20:43.636Z,100791
2017-08-13T10:25:46.847Z,100792
2017-08-13T10:30:50.052Z,100791
2017-08-13T10:35:53.241Z,100793
2017-08-13T10:40:58.106Z,100803
2017-08-13T10:46:05.600Z,100797
2017-08-13T10:51:09.559Z,100789
2017-08-13T10:56:12.770Z,100788
2017-08-13T11:01:16.027Z,100776
2017-08-13T11:06:19.342Z,100785
2017-08-13T11:11:23.295Z,100779
2017-08-13T11:16:26.495Z,100784
2017-08-13T11:21:29.699Z,100772
2017-08-13T11:26:32.944Z,100779
2017-08-13T11:31:36.208Z,100786
2017-08-13T11:36:40.164Z,100776
2017-08-13T11:41:43.320Z,100784
2017-08-13T11:46:47.278Z,100781
2017-08-13T11:51:50.491Z,100778
2017-08-13T11:56:53.698Z,100781
2017-08-13T12:01:56.885Z,100777
2017-08-13T12:07:00.088Z,100780
2017-08-13T12:12:04.044Z,100778
2017-08-13T12:17:07.219Z,100776
2017-08-13T12:22:10.427Z,100777
2017-08-13T12:27:13.619Z,100771
2017-08-13T12:32:17.597Z,100773
2017-08-13T12:37:20.897Z,100768
2017-08-13T12:42:24.173Z,100777
2017-08-13T12:47:28.113Z,100774
2017-08-13T12:52:31.328Z,100760
2017-08-13T12:57:34.507Z,100756
2017-08-13T13:02:38.462Z,100759
2017-08-13T13:07:41.616Z,100767
2017-08-13T13:12:45.594Z,100769
2017-08-13T13:17:48.770Z,100761
2017-08-13T13:22:51.967Z,100770
2017-08-13T13:27:55.937Z,100774
2017-08-13T13:32:59.125Z,100781
2017-08-13T13:38:02.323Z,100776
2017-08-13T13:43:06.247Z,100780
2017-08-13T13:48:09.416Z,100783
2017-08-13T13:53:12.579Z,100775
2017-08-13T13:58:15.760Z,100768
2017-08-13T14:03:18.918Z,100777
2017-08-13T14:08:22.161Z,100773
2017-08-13T14:13:26.093Z,100770
2017-08-13T14:18:29.294Z,100778
2017-08-13T14:23:33.352Z,100775
2017-08-13T14:28:36.579Z,100770
2017-08-13T14:33:39.770Z,100775
2017-08-13T14:38:43.091Z,100779
2017-08-13T14:43:46.349Z,100782
2017-08-13T14:48:50.308Z,100787
2017-08-13T14:53:53.507Z,100778
2017-08-13T14:58:56.718Z,100782
2017-08-13T15:03:59.912Z,100775
2017-08-13T15:09:03.082Z,100780
2017-08-13T15:14:06.280Z,100785
2017-08-13T15:19:09.486Z,100786
2017-08-13T15:24:12.671Z,100793
2017-08-13T15:29:15.846Z,100789
2017-08-13T15:34:19.046Z,100790
2017-08-13T15:39:22.248Z,100792
2017-08-13T15:44:26.226Z,100784
2017-08-13T15:49:29.434Z,100781
2017-08-13T15:54:32.632Z,100784
2017-08-13T15:59:35.839Z,100785
2017-08-13T16:04:39.718Z,100788
2017-08-13T16:09:43.677Z,100792
2017-08-13T16:14:46.950Z,100781
2017-08-13T16:19:51.587Z,100780
2017-08-13T16:24:56.322Z,100783
2017-08-13T16:29:59.599Z,100782
2017-08-13T16:35:02.807Z,100779
2017-08-13T16:40:06.037Z,100790
2017-08-13T16:45:09.229Z,100782
2017-08-13T16:50:34.131Z,100783
2017-08-13T16:56:07.678Z,100783
2017-08-13T17:01:11.649Z,100784
2017-08-13T17:06:14.928Z,100784
2017-08-13T17:11:18.914Z,100777
2017-08-13T17:16:22.297Z,100788
2017-08-13T17:21:33.921Z,100784
2017-08-13T17:26:37.177Z,100782
2017-08-13T17:31:40.427Z,100794
2017-08-13T17:36:43.670Z,100786
2017-08-13T17:41:48.744Z,100788
2017-08-13T17:46:52.232Z,100794
2017-08-13T17:51:56.695Z,100797
2017-08-13T17:56:59.950Z,100800
2017-08-13T18:02:03.501Z,100802
2017-08-13T18:07:08.321Z,100797
2017-08-13T18:12:11.509Z,100808
2017-08-13T18:17:14.874Z,100809
2017-08-13T18:22:18.812Z,100821
2017-08-13T18:27:22.046Z,100831
2017-08-13T18:32:25.807Z,100838
2017-08-13T18:37:29.002Z,100845
2017-08-13T18:42:32.600Z,100844
2017-08-13T18:47:35.973Z,100843
2017-08-13T18:58:14.706Z,100857
2017-08-13T19:03:18.238Z,100863
2017-08-13T19:08:22.411Z,100875
2017-08-13T19:13:25.882Z,100878
2017-08-13T19:18:30.119Z,100875
2017-08-13T19:23:36.781Z,100878
2017-08-13T19:28:40.450Z,100891
2017-08-13T19:33:45.643Z,100887
2017-08-13T19:38:50.240Z,100894
2017-08-13T19:43:55.531Z,100896
2017-08-13T19:48:59.188Z,100900
2017-08-13T19:54:04.081Z,100905
2017-08-13T19:59:09.454Z,100909
2017-08-13T20:04:14.239Z,100912
2017-08-13T20:09:19.158Z,100908
2017-08-13T20:14:25.816Z,100905
2017-08-13T20:19:31.351Z,100907
2017-08-13T20:24:36.899Z,100915
2017-08-13T20:29:42.307Z,100914
2017-08-13T20:34:47.792Z,100914
2017-08-13T20:39:52.010Z,100923
2017-08-13T20:44:56.821Z,100917
2017-08-13T20:50:00.574Z,100922
2017-08-13T20:55:05.106Z,100923
2017-08-13T21:00:09.885Z,100923
2017-08-13T21:05:14.722Z,100923
2017-08-13T21:10:20.143Z,100927
2017-08-13T21:15:25.090Z,100926
2017-08-13T21:20:29.787Z,100923
2017-08-13T21:25:34.679Z,100928
2017-08-13T21:30:38.354Z,100946
2017-08-13T21:35:41.909Z,100941
2017-08-13T21:40:47.660Z,100936
2017-08-13T21:45:54.094Z,100938
2017-08-13T21:51:03.597Z,100941
2017-08-13T21:56:07.240Z,100941
2017-08-13T22:01:11.542Z,100942
2017-08-13T22:06:15.014Z,100934
2017-08-13T22:11:19.454Z,100935
2017-08-13T22:16:23.896Z,100941
2017-08-13T22:21:27.951Z,100938
2017-08-13T22:26:31.136Z,100938
2017-08-13T22:31:35.521Z,100935
2017-08-13T22:36:38.873Z,100935
2017-08-13T22:41:44.265Z,100937
2017-08-13T22:46:48.113Z,100936
2017-08-13T22:51:51.302Z,100935
2017-08-13T22:56:54.742Z,100925
2017-08-13T23:01:57.931Z,100936
2017-08-13T23:07:01.349Z,100935
2017-08-13T23:12:04.865Z,100939
2017-08-13T23:17:12.670Z,100932
2017-08-13T23:22:15.890Z,100930
2017-08-13T23:27:19.308Z,100929
2017-08-13T23:32:22.618Z,100927
2017-08-13T23:37:26.055Z,100925
2017-08-13T23:42:30.272Z,100925
2017-08-13T23:47:33.820Z,100931
2017-08-13T23:52:37.219Z,100921
2017-08-13T23:57:41.327Z,100922
